Time;durP1;ratioP1;P1;durP2;ratioP2;P2;SDS_P1;SDS_P2;PMS_P1;PMS_P2;Temp;Humidity;BMP_temperature;BMP_pressure;BME280_temperature;BME280_humidity;BME280_pressure;Samples;Min_cycle;Max_cycle;Signal;HPM_P1;HPM_P2
2022/09/19 00:00:34;;;;;;;;;;;;;;;12.61;100.00;100994.28;5086373;28;19982;-87
2022/09/19 00:03:06;;;;;;;;;;;;;;;12.63;100.00;100983.44;5096404;28;19924;-89
2022/09/19 00:05:49;;;;;;;;;;;;;;;12.49;100.00;100987.19;5094172;28;19931;-89
2022/09/19 00:08:17;;;;;;;;;;;;;;;12.37;100.00;100985.19;5098741;28;19924;-89
2022/09/19 00:10:52;;;;;;;;;;;;;;;12.58;100.00;100980.56;5097064;28;19932;-90
2022/09/19 00:13:38;;;;;;;;;;;;;;;12.58;100.00;100985.91;5098655;28;19928;-89
2022/09/19 00:16:10;;;;;;;;;;;;;;;12.55;100.00;100983.66;5086434;28;19925;-89
2022/09/19 00:18:40;;;;;;;;;;;;;;;12.54;100.00;100987.38;5092890;28;19925;-89
2022/09/19 00:27:10;;;;;;;;;;;;;;;12.18;100.00;100982.59;5095760;28;19951;-87
2022/09/19 00:29:37;;;;;;;;;;;;;;;12.08;100.00;100988.38;5093413;28;19928;-87
2022/09/19 00:32:11;;;;;;;;;;;;;;;12.13;100.00;100988.53;5102685;28;19931;-88
2022/09/19 00:34:47;;;;;;;;;;;;;;;12.26;100.00;100980.53;5086187;28;20322;-89
2022/09/19 00:37:26;;;;;;;;;;;;;;;12.32;100.00;100984.19;5082148;28;19931;-89
2022/09/19 00:39:59;;;;;;;;;;;;;;;12.21;100.00;100971.53;5099283;28;19931;-90
2022/09/19 00:42:34;;;;;;;;;;;;;;;12.07;100.00;100978.72;5098512;28;19928;-87
2022/09/19 00:45:28;;;;;;;;;;;;;;;;;;;;;
2022/09/19 00:48:02;;;;;;;;;;;;;;;11.99;100.00;100976.31;5094513;28;19935;-86
2022/09/19 00:50:45;;;;;;;;;;;;;;;12.04;100.00;100979.16;5096225;28;19928;-89
2022/09/19 00:53:24;;;;;;;;;;;;;;;12.13;100.00;100965.41;5096125;28;19928;-89
2022/09/19 00:56:09;;;;;;;;;;;;;;;12.25;100.00;100962.88;5095213;28;19934;-90
2022/09/19 00:58:47;;;;;;;;;;;;;;;12.14;100.00;100967.03;5090961;28;19993;-90
2022/09/19 01:01:18;;;;;;;;;;;;;;;12.21;100.00;100972.34;5093055;28;19978;-90
2022/09/19 01:03:55;;;;;;;;;;;;;;;12.22;100.00;100962.50;5084369;28;19936;-89
2022/09/19 01:07:00;;;;;;;;;;;;;;;12.03;100.00;100966.88;5082352;28;20383;-90
2022/09/19 01:09:58;;;;;;;;;;;;;;;11.89;100.00;100963.41;5051552;28;20061;-87
2022/09/19 01:12:54;;;;;;;;;;;;;;;11.66;100.00;100964.66;5058631;28;20019;-89
2022/09/19 01:15:39;;;;;;;;;;;;;;;11.89;100.00;100958.94;5092421;28;19978;-89
2022/09/19 01:18:14;;;;;;;;;;;;;;;11.39;100.00;100969.19;5083685;28;20017;-89
2022/09/19 01:23:44;;;;;;;;;;;;;;;11.59;100.00;100965.69;5096366;28;19924;-89
2022/09/19 01:26:48;;;;;;;;;;;;;;;11.68;100.00;100964.47;5084671;28;19935;-90
2022/09/19 01:29:29;;;;;;;;;;;;;;;11.86;100.00;100964.66;5094957;28;19924;-87
2022/09/19 01:32:01;;;;;;;;;;;;;;;11.82;100.00;100959.94;5089214;28;19924;-87
2022/09/19 01:34:49;;;;;;;;;;;;;;;11.84;100.00;100956.03;5089457;28;19958;-86
2022/09/19 01:37:32;;;;;;;;;;;;;;;11.90;100.00;100957.91;5089480;28;19935;-89
2022/09/19 01:43:06;;;;;;;;;;;;;;;11.66;100.00;100951.34;5091868;28;19923;-89
2022/09/19 01:45:55;;;;;;;;;;;;;;;11.71;100.00;100958.72;5093310;28;19954;-89
2022/09/19 01:48:48;;;;;;;;;;;;;;;11.65;100.00;100951.56;5082929;28;19924;-89
2022/09/19 01:51:31;;;;;;;;;;;;;;;11.51;100.00;100949.94;5080235;28;19924;-89
2022/09/19 01:54:22;;;;;;;;;;;;;;;11.80;100.00;100943.34;5089938;28;19924;-89
2022/09/19 01:57:04;;;;;;;;;;;;;;;11.68;100.00;100951.16;5079208;28;19943;-89
2022/09/19 01:59:42;;;;;;;;;;;;;;;11.81;100.00;100947.66;5086305;28;19928;-87
2022/09/19 02:02:14;;;;;;;;;;;;;;;11.67;100.00;100949.50;5176746;22;19929;-87
2022/09/19 02:04:50;;;;;;;;;;;;;;;11.55;100.00;100951.97;5065148;28;19925;-89
2022/09/19 02:10:22;;;;;;;;;;;;;;;11.51;100.00;100960.59;5074546;28;19924;-88
2022/09/19 02:12:53;;;;;;;;;;;;;;;11.36;100.00;100958.94;5068297;28;20417;-89
2022/09/19 02:15:46;;;;;;;;;;;;;;;11.17;100.00;100959.78;5075248;28;19932;-91
2022/09/19 02:18:29;;;;;;;;;;;;;;;11.14;100.00;100963.66;5067550;28;19925;-90
2022/09/19 02:21:00;;;;;;;;;;;;;;;11.18;100.00;100969.38;5070726;28;19975;-89
2022/09/19 02:23:48;;;;;;;;;;;;;;;11.09;100.00;100965.28;5076157;28;19933;-87
2022/09/19 02:26:20;;;;;;;;;;;;;;;10.95;100.00;100969.75;5079046;28;19928;-90
2022/09/19 02:28:54;;;;;;;;;;;;;;;11.13;100.00;100974.47;5072059;28;20377;-87
2022/09/19 02:31:34;;;;;;;;;;;;;;;11.11;100.00;100969.38;5077536;28;19924;-86
2022/09/19 02:34:05;;;;;;;;;;;;;;;10.91;100.00;100973.84;5063948;28;19924;-87
2022/09/19 02:36:50;;;;;;;;;;;;;;;10.67;100.00;100972.56;5078744;28;19982;-87
2022/09/19 02:39:42;;;;;;;;;;;;;;;10.72;100.00;100972.78;5079402;28;19924;-87
2022/09/19 02:42:11;;;;;;;;;;;;;;;10.69;100.00;100974.00;5083148;28;19935;-89
2022/09/19 02:44:49;;;;;;;;;;;;;;;10.77;100.00;100984.47;5076470;28;19978;-85
2022/09/19 02:47:21;;;;;;;;;;;;;;;10.56;100.00;100981.94;5071766;28;20007;-84
2022/09/19 02:49:52;;;;;;;;;;;;;;;10.73;100.00;100980.53;5083582;28;19924;-87
2022/09/19 02:52:29;;;;;;;;;;;;;;;10.62;100.00;100981.16;5086928;28;19925;-88
2022/09/19 02:55:13;;;;;;;;;;;;;;;10.30;100.00;100986.13;5060107;28;19928;-88
2022/09/19 02:57:41;;;;;;;;;;;;;;;9.96;100.00;100986.13;5066243;28;19932;-88
2022/09/19 03:00:12;;;;;;;;;;;;;;;9.71;100.00;100994.50;5070943;28;19925;-88
2022/09/19 03:02:42;;;;;;;;;;;;;;;10.37;100.00;100986.13;5073372;28;19925;-85
2022/09/19 03:05:36;;;;;;;;;;;;;;;10.66;100.00;100985.03;5079268;28;19936;-87
2022/09/19 03:08:09;;;;;;;;;;;;;;;10.11;100.00;100984.16;5085575;28;20001;-88
2022/09/19 03:10:46;;;;;;;;;;;;;;;10.07;100.00;100998.81;5075401;28;20027;-87
2022/09/19 03:13:27;;;;;;;;;;;;;;;10.11;100.00;100999.28;5071334;28;19976;-89
2022/09/19 03:15:58;;;;;;;;;;;;;;;10.82;100.00;100989.16;5077338;28;19924;-86
2022/09/19 03:18:27;;;;;;;;;;;;;;;10.59;100.00;100993.97;5078794;28;19931;-88
2022/09/19 03:21:24;;;;;;;;;;;;;;;10.52;100.00;100988.66;5072043;28;20373;-87
2022/09/19 03:24:02;;;;;;;;;;;;;;;10.50;100.00;100991.53;5065832;28;19940;-84
2022/09/19 03:26:36;;;;;;;;;;;;;;;10.39;100.00;101000.03;5071551;28;19994;-82
2022/09/19 03:29:05;;;;;;;;;;;;;;;10.08;100.00;101000.47;5066181;28;19974;-83
2022/09/19 03:31:50;;;;;;;;;;;;;;;9.95;100.00;101013.66;5075612;28;19935;-86
2022/09/19 03:34:19;;;;;;;;;;;;;;;10.12;100.00;101020.28;5075312;28;20019;-85
2022/09/19 03:36:45;;;;;;;;;;;;;;;10.39;100.00;101007.19;5072940;28;19931;-83
2022/09/19 03:39:19;;;;;;;;;;;;;;;10.08;100.00;101017.22;5075891;28;19994;-86
2022/09/19 03:41:49;;;;;;;;;;;;;;;10.44;100.00;101018.03;5062073;28;19935;-85
2022/09/19 03:44:27;;;;;;;;;;;;;;;10.09;100.00;101012.72;5075063;28;20430;-87
2022/09/19 03:47:04;;;;;;;;;;;;;;;9.97;100.00;101008.97;5075367;28;19938;-83
2022/09/19 03:49:33;;;;;;;;;;;;;;;10.00;100.00;101006.75;5077201;28;19931;-84
2022/09/19 03:52:13;;;;;;;;;;;;;;;10.09;100.00;101008.22;5075886;28;19925;-86
2022/09/19 03:54:46;;;;;;;;;;;;;;;10.27;100.00;101002.44;5072410;28;19999;-88
2022/09/19 03:57:27;;;;;;;;;;;;;;;10.27;100.00;101009.59;5075428;28;20279;-85
2022/09/19 04:00:10;;;;;;;;;;;;;;;9.89;100.00;101004.63;5075035;28;19928;-85
2022/09/19 04:02:40;;;;;;;;;;;;;;;10.03;100.00;101003.69;5075188;28;19985;-85
2022/09/19 04:05:15;;;;;;;;;;;;;;;10.40;100.00;101006.97;5065612;28;19932;-83
2022/09/19 04:07:51;;;;;;;;;;;;;;;9.25;100.00;101015.34;5076081;28;19932;-84
2022/09/19 04:10:32;;;;;;;;;;;;;;;9.21;100.00;101019.41;5066445;28;19983;-86
2022/09/19 04:13:25;;;;;;;;;;;;;;;8.45;100.00;101017.13;5073915;28;19924;-84
2022/09/19 04:15:54;;;;;;;;;;;;;;;8.53;100.00;101009.06;5067470;28;19986;-85
2022/09/19 04:18:22;;;;;;;;;;;;;;;8.85;100.00;101012.28;5061879;28;20291;-85
2022/09/19 04:20:51;;;;;;;;;;;;;;;8.90;100.00;101013.38;5070981;28;19989;-85
2022/09/19 04:23:27;;;;;;;;;;;;;;;9.09;100.00;101016.41;5025159;28;20293;-86
2022/09/19 04:26:03;;;;;;;;;;;;;;;12.45;100.00;101007.28;4990663;28;19929;-86
2022/09/19 04:28:30;;;;;;;;;;;;;;;21.08;100.00;100993.19;4993451;28;19933;-84
2022/09/19 04:30:58;;;;;;;;;;;;;;;19.79;100.00;100993.84;4982189;28;20004;-82
2022/09/19 04:33:25;;;;;;;;;;;;;;;12.86;100.00;101011.38;4989779;28;19976;-78
2022/09/19 04:35:52;;;;;;;;;;;;;;;11.26;100.00;101009.06;4988299;28;19965;-81
2022/09/19 04:38:19;;;;;;;;;;;;;;;10.66;100.00;101016.91;4982875;28;20298;-78
2022/09/19 04:40:46;;;;;;;;;;;;;;;10.01;100.00;101018.19;4984339;28;19933;-83
2022/09/19 04:43:14;;;;;;;;;;;;;;;10.28;100.00;101020.00;4989740;28;19926;-80
2022/09/19 04:45:46;;;;;;;;;;;;;;;10.63;100.00;101019.97;4985295;28;19933;-82
2022/09/19 04:48:14;;;;;;;;;;;;;;;10.98;100.00;101028.66;4987000;28;19926;-81
2022/09/19 04:50:41;;;;;;;;;;;;;;;10.75;100.00;101028.19;4986497;28;19925;-82
2022/09/19 04:53:07;;;;;;;;;;;;;;;10.94;100.00;101021.28;4988613;28;19930;-80
2022/09/19 04:55:34;;;;;;;;;;;;;;;11.03;100.00;101017.41;4983623;28;20371;-79
2022/09/19 04:58:01;;;;;;;;;;;;;;;10.99;100.00;101024.97;4988223;28;19925;-81
2022/09/19 05:00:40;;;;;;;;;;;;;;;10.92;100.00;101028.63;4982812;28;19932;-81
2022/09/19 05:03:08;;;;;;;;;;;;;;;11.27;100.00;101021.34;4987147;28;19988;-79
2022/09/19 05:05:44;;;;;;;;;;;;;;;11.61;100.00;101016.84;4987183;28;20397;-81
2022/09/19 05:08:11;;;;;;;;;;;;;;;11.68;100.00;101020.34;4986355;28;19932;-80
2022/09/19 05:10:39;;;;;;;;;;;;;;;11.76;100.00;101019.28;4988170;28;20354;-82
2022/09/19 05:13:06;;;;;;;;;;;;;;;11.83;100.00;101014.78;4988337;28;20013;-78
2022/09/19 05:15:32;;;;;;;;;;;;;;;12.00;100.00;101015.19;4987317;28;20371;-79
2022/09/19 05:17:59;;;;;;;;;;;;;;;11.84;100.00;101008.44;4987060;28;19937;-79
2022/09/19 05:20:26;;;;;;;;;;;;;;;12.09;100.00;101004.13;4985628;28;19988;-78
2022/09/19 05:22:58;;;;;;;;;;;;;;;12.18;100.00;101002.06;4984391;28;19926;-83
2022/09/19 05:25:26;;;;;;;;;;;;;;;12.18;100.00;100999.38;4987528;28;19957;-82
2022/09/19 05:27:53;;;;;;;;;;;;;;;12.48;100.00;101005.00;4987431;28;19934;-82
2022/09/19 05:30:22;;;;;;;;;;;;;;;12.61;100.00;101004.94;4987873;28;20347;-82
2022/09/19 05:32:49;;;;;;;;;;;;;;;12.98;100.00;101021.19;4986824;28;19948;-79
2022/09/19 05:35:16;;;;;;;;;;;;;;;12.99;100.00;101012.16;4982701;28;19930;-79
2022/09/19 05:37:44;;;;;;;;;;;;;;;13.16;100.00;101016.94;4988287;28;19930;-81
2022/09/19 05:40:12;;;;;;;;;;;;;;;13.28;100.00;101026.75;4988200;28;19992;-79
2022/09/19 05:42:39;;;;;;;;;;;;;;;13.62;100.00;101031.84;4987672;28;19984;-79
2022/09/19 05:45:07;;;;;;;;;;;;;;;13.58;100.00;101020.75;4988452;28;19936;-79
2022/09/19 05:47:34;;;;;;;;;;;;;;;13.75;100.00;101029.06;4982359;28;19996;-81
2022/09/19 05:50:00;;;;;;;;;;;;;;;13.96;100.00;101028.63;4984901;28;19926;-79
2022/09/19 05:55:12;;;;;;;;;;;;;;;14.02;100.00;101026.13;4988727;28;19999;-80
2022/09/19 05:57:39;;;;;;;;;;;;;;;14.87;100.00;101018.16;4995367;28;20361;-77
2022/09/19 06:00:06;;;;;;;;;;;;;;;14.34;100.00;101021.44;4990010;28;19926;-78
2022/09/19 06:02:33;;;;;;;;;;;;;;;14.42;100.00;101021.97;4988446;28;19926;-79
2022/09/19 06:05:00;;;;;;;;;;;;;;;14.58;100.00;101020.59;4986357;28;19929;-84
2022/09/19 06:07:26;;;;;;;;;;;;;;;14.69;100.00;101024.34;4987734;28;19997;-83
2022/09/19 06:09:55;;;;;;;;;;;;;;;15.16;98.71;101027.22;4986303;28;19926;-78
2022/09/19 06:12:26;;;;;;;;;;;;;;;15.25;100.00;101028.53;4993358;28;19929;-79
2022/09/19 06:14:54;;;;;;;;;;;;;;;15.53;100.00;101035.91;4989964;28;19984;-83
2022/09/19 06:17:21;;;;;;;;;;;;;;;15.67;90.62;101030.31;4990401;28;20252;-78
2022/09/19 06:19:48;;;;;;;;;;;;;;;16.03;81.51;101040.81;4985198;28;20453;-80
2022/09/19 06:22:17;;;;;;;;;;;;;;;16.17;80.54;101035.22;4989728;28;20053;-80
2022/09/19 06:24:46;;;;;;;;;;;;;;;16.12;74.98;101035.91;4984867;28;19926;-79
2022/09/19 06:27:13;;;;;;;;;;;;;;;16.21;74.89;101039.06;4987790;28;20299;-80
2022/09/19 06:29:42;;;;;;;;;;;;;;;16.54;75.59;101032.22;4988724;28;19926;-81
2022/09/19 06:32:09;;;;;;;;;;;;;;;16.91;72.08;101030.03;4990701;28;19930;-80
2022/09/19 06:34:35;;;;;;;;;;;;;;;16.23;71.43;101040.47;4985643;28;19937;-79
2022/09/19 06:37:02;;;;;;;;;;;;;;;17.40;79.03;101030.34;4987128;28;19925;-81
2022/09/19 06:39:32;;;;;;;;;;;;;;;16.99;68.59;101032.31;4988961;28;19926;-82
2022/09/19 06:42:03;;;;;;;;;;;;;;;16.68;70.74;101030.91;4983993;28;20021;-80
2022/09/19 06:44:31;;;;;;;;;;;;;;;16.58;69.24;101039.56;4987191;28;19933;-78
2022/09/19 06:47:04;;;;;;;;;;;;;;;17.03;70.88;101038.81;4987246;28;19926;-81
2022/09/19 06:49:33;;;;;;;;;;;;;;;17.21;65.06;101034.31;4986698;28;19934;-81
2022/09/19 06:51:59;;;;;;;;;;;;;;;17.96;66.87;101033.09;4988781;28;19936;-81
2022/09/19 06:54:26;;;;;;;;;;;;;;;17.36;80.42;101029.19;4989836;28;19952;-80
2022/09/19 06:56:52;;;;;;;;;;;;;;;17.87;64.16;101032.72;4988595;28;19992;-81
2022/09/19 06:59:19;;;;;;;;;;;;;;;17.52;66.24;101024.88;4985078;28;20008;-78
2022/09/19 07:01:46;;;;;;;;;;;;;;;17.82;64.94;101017.34;4991232;28;19953;-79
2022/09/19 07:04:14;;;;;;;;;;;;;;;18.37;75.02;101022.91;4987013;28;19940;-80
2022/09/19 07:06:41;;;;;;;;;;;;;;;17.97;82.17;101024.81;4989332;28;19930;-80
2022/09/19 07:09:10;;;;;;;;;;;;;;;18.29;71.51;101021.47;4987389;28;19926;-81
2022/09/19 07:11:38;;;;;;;;;;;;;;;17.94;60.66;101022.59;4986354;28;19933;-79
2022/09/19 07:14:05;;;;;;;;;;;;;;;17.92;60.52;101024.72;4988740;28;19933;-81
2022/09/19 07:16:32;;;;;;;;;;;;;;;18.26;60.53;101022.75;4983893;28;20000;-78
2022/09/19 07:18:58;;;;;;;;;;;;;;;18.52;61.46;101015.81;4991756;28;20041;-81
2022/09/19 07:21:30;;;;;;;;;;;;;;;18.56;56.99;101024.19;4990987;28;19980;-81
2022/09/19 07:23:58;;;;;;;;;;;;;;;18.89;57.68;101035.91;4981772;28;20314;-80
2022/09/19 07:26:25;;;;;;;;;;;;;;;19.26;64.08;101017.13;4988782;28;19937;-77
2022/09/19 07:28:51;;;;;;;;;;;;;;;18.78;56.53;101018.81;4982294;28;19973;-77
2022/09/19 07:31:18;;;;;;;;;;;;;;;19.20;76.36;101016.25;4988155;28;19987;-77
2022/09/19 07:33:46;;;;;;;;;;;;;;;18.84;61.03;101015.13;4987513;28;19944;-77
2022/09/19 07:36:12;;;;;;;;;;;;;;;19.09;58.14;101014.56;4990653;28;19933;-80
2022/09/19 07:38:40;;;;;;;;;;;;;;;19.27;57.70;101024.13;4986605;28;19969;-80
2022/09/19 07:41:07;;;;;;;;;;;;;;;18.83;65.28;101020.75;4991086;28;20314;-77
2022/09/19 07:43:34;;;;;;;;;;;;;;;19.24;54.48;101016.56;4989516;28;19933;-78
2022/09/19 07:46:04;;;;;;;;;;;;;;;20.30;65.98;101018.38;4988016;28;19930;-78
2022/09/19 07:48:31;;;;;;;;;;;;;;;20.41;53.76;101016.50;4989780;28;19980;-79
2022/09/19 07:50:58;;;;;;;;;;;;;;;19.71;53.16;101023.16;4986091;28;19996;-81
2022/09/19 07:53:26;;;;;;;;;;;;;;;20.59;67.01;101017.94;4986364;28;19993;-81
2022/09/19 07:55:54;;;;;;;;;;;;;;;20.07;54.26;101018.78;4990637;28;19938;-81
2022/09/19 07:58:26;;;;;;;;;;;;;;;20.23;54.43;101020.47;4990618;28;19984;-78
2022/09/19 08:00:52;;;;;;;;;;;;;;;20.18;51.21;101022.34;4987190;28;20007;-80
2022/09/19 08:03:22;;;;;;;;;;;;;;;20.73;73.09;101016.38;4985386;28;19930;-77
2022/09/19 08:05:51;;;;;;;;;;;;;;;21.22;70.32;101017.78;4989130;28;19937;-80
2022/09/19 08:08:19;;;;;;;;;;;;;;;20.93;59.69;101018.28;4989185;28;19926;-80
2022/09/19 08:10:46;;;;;;;;;;;;;;;21.76;69.33;101027.25;4986982;28;19948;-80
2022/09/19 08:13:16;;;;;;;;;;;;;;;21.17;54.91;101023.19;4989278;28;19933;-78
2022/09/19 08:15:43;;;;;;;;;;;;;;;20.21;49.15;101025.34;4988331;28;19930;-80
2022/09/19 08:18:13;;;;;;;;;;;;;;;20.58;50.48;101017.16;4987859;28;19926;-81
2022/09/19 08:20:40;;;;;;;;;;;;;;;20.55;51.23;101017.69;4988096;28;19929;-81
2022/09/19 08:23:08;;;;;;;;;;;;;;;20.34;48.20;101024.03;4984328;28;20023;-78
2022/09/19 08:25:38;;;;;;;;;;;;;;;20.44;49.83;101015.97;4988673;28;20009;-77
2022/09/19 08:28:05;;;;;;;;;;;;;;;20.54;56.44;101012.53;4987875;28;20290;-76
2022/09/19 08:30:41;;;;;;;;;;;;;;;21.03;59.39;101007.53;4988872;28;19934;-80
2022/09/19 08:33:24;;;;;;;;;;;;;;;21.62;52.08;101010.78;4989084;28;19926;-80
2022/09/19 08:36:01;;;;;;;;;;;;;;;20.96;46.01;101003.44;4986703;28;19930;-80
2022/09/19 08:38:28;;;;;;;;;;;;;;;20.48;44.44;100995.47;4988402;28;19926;-78
2022/09/19 08:41:09;;;;;;;;;;;;;;;20.76;43.62;100996.94;4988674;28;19937;-81
2022/09/19 08:43:38;;;;;;;;;;;;;;;22.36;41.06;100991.13;4984774;28;19930;-84
2022/09/19 08:46:14;;;;;;;;;;;;;;;20.95;44.11;100986.44;4983601;28;19930;-80
2022/09/19 08:48:46;;;;;;;;;;;;;;;23.04;44.66;100978.81;4987522;28;19933;-80
2022/09/19 08:51:18;;;;;;;;;;;;;;;23.43;37.29;100975.22;4981510;28;20025;-80
2022/09/19 08:53:47;;;;;;;;;;;;;;;22.73;52.66;100981.69;4991325;28;19926;-81
2022/09/19 08:56:18;;;;;;;;;;;;;;;21.25;39.57;100980.25;4988008;28;19937;-80
2022/09/19 08:58:47;;;;;;;;;;;;;;;21.87;40.40;100969.34;4987512;28;19926;-80
2022/09/19 09:01:16;;;;;;;;;;;;;;;22.99;37.73;100968.00;4986577;28;19926;-79
2022/09/19 09:03:49;;;;;;;;;;;;;;;22.83;36.96;100962.66;4984126;28;19926;-79
2022/09/19 09:06:20;;;;;;;;;;;;;;;23.25;36.96;100960.47;4991532;28;19926;-78
2022/09/19 09:08:52;;;;;;;;;;;;;;;23.06;40.23;100958.47;4979394;28;20017;-79
2022/09/19 09:11:24;;;;;;;;;;;;;;;21.73;38.37;100964.53;4978697;28;19926;-80
2022/09/19 09:13:55;;;;;;;;;;;;;;;23.38;34.40;100948.16;4978505;28;19930;-82
2022/09/19 09:16:30;;;;;;;;;;;;;;;21.62;36.32;100959.44;4983259;28;19926;-79
2022/09/19 09:19:08;;;;;;;;;;;;;;;23.52;35.58;100944.50;4981424;28;19926;-79
2022/09/19 09:21:40;;;;;;;;;;;;;;;23.83;33.72;100946.88;4984221;28;20365;-80
2022/09/19 09:24:13;;;;;;;;;;;;;;;24.11;36.56;100949.81;4983746;28;20275;-80
2022/09/19 09:26:43;;;;;;;;;;;;;;;22.71;32.75;100948.69;4985576;28;19930;-77
2022/09/19 09:29:16;;;;;;;;;;;;;;;24.16;35.77;100941.59;4988312;28;19937;-80
2022/09/19 09:31:47;;;;;;;;;;;;;;;23.13;34.98;100932.97;4987543;28;20373;-81
2022/09/19 09:34:17;;;;;;;;;;;;;;;22.55;34.87;100936.34;4987010;28;19926;-80
2022/09/19 09:36:49;;;;;;;;;;;;;;;23.22;34.36;100932.03;4991963;28;20413;-79
2022/09/19 09:39:18;;;;;;;;;;;;;;;23.23;39.47;100925.53;4990533;28;19932;-81
2022/09/19 09:41:47;;;;;;;;;;;;;;;23.17;42.59;100920.44;4989918;28;19926;-80
2022/09/19 09:44:26;;;;;;;;;;;;;;;23.29;37.95;100929.00;4986447;28;20020;-78
2022/09/19 09:46:59;;;;;;;;;;;;;;;22.97;49.27;100929.56;4980109;28;20370;-79
2022/09/19 09:49:28;;;;;;;;;;;;;;;24.12;34.68;100918.88;4988813;28;19926;-81
2022/09/19 09:51:57;;;;;;;;;;;;;;;23.92;34.35;100915.31;4985779;28;20390;-78
2022/09/19 09:57:32;;;;;;;;;;;;;;;24.34;31.59;100908.25;4985679;28;20040;-77
2022/09/19 10:05:39;;;;;;;;;;;;;;;26.39;29.98;100902.59;4982893;28;19936;-81
2022/09/19 10:08:16;;;;;;;;;;;;;;;24.80;43.15;100909.47;4983072;28;19930;-80
2022/09/19 10:10:45;;;;;;;;;;;;;;;24.65;34.37;100902.38;4983786;28;19937;-81
2022/09/19 10:13:25;;;;;;;;;;;;;;;25.15;34.41;100901.88;4982952;28;19930;-78
2022/09/19 10:15:56;;;;;;;;;;;;;;;25.08;42.42;100899.50;4980531;28;19996;-81
2022/09/19 10:18:31;;;;;;;;;;;;;;;23.48;51.43;100899.25;4978869;28;19961;-79
2022/09/19 10:20:59;;;;;;;;;;;;;;;24.14;32.69;100892.25;4988181;28;20040;-78
2022/09/19 10:23:26;;;;;;;;;;;;;;;24.77;32.21;100897.28;4987084;28;19926;-78
2022/09/19 10:26:14;;;;;;;;;;;;;;;25.50;32.35;100892.22;4986548;28;20297;-79
2022/09/19 10:28:45;;;;;;;;;;;;;;;24.98;30.85;100889.59;4983213;28;19937;-79
2022/09/19 10:31:23;;;;;;;;;;;;;;;24.36;29.94;100888.97;4986696;28;20017;-81
2022/09/19 10:33:52;;;;;;;;;;;;;;;24.00;33.26;100895.69;4982637;28;20468;-83
2022/09/19 10:36:20;;;;;;;;;;;;;;;25.35;31.48;100902.28;4992607;28;20337;-81
2022/09/19 10:38:48;;;;;;;;;;;;;;;26.43;35.69;100886.44;4988846;28;19984;-76
2022/09/19 10:41:19;;;;;;;;;;;;;;;25.61;31.29;100884.69;4992860;28;19933;-79
2022/09/19 10:43:48;;;;;;;;;;;;;;;27.70;28.33;100878.84;4988469;28;20009;-80
2022/09/19 10:46:17;;;;;;;;;;;;;;;26.21;29.78;100874.44;4992392;28;19926;-80
2022/09/19 10:48:50;;;;;;;;;;;;;;;25.10;37.04;100878.25;4992258;28;19941;-80
2022/09/19 10:51:18;;;;;;;;;;;;;;;24.57;32.51;100865.03;4984548;28;19926;-80
2022/09/19 10:53:48;;;;;;;;;;;;;;;24.91;34.20;100870.97;4985175;28;19930;-80
2022/09/19 10:56:22;;;;;;;;;;;;;;;27.05;31.55;100851.16;4990210;28;19945;-80
2022/09/19 10:58:52;;;;;;;;;;;;;;;26.51;28.22;100850.34;4991322;28;20377;-78
2022/09/19 11:01:24;;;;;;;;;;;;;;;24.97;30.84;100863.56;4990077;28;19929;-78
2022/09/19 11:04:01;;;;;;;;;;;;;;;24.89;31.87;100854.16;4984022;28;20276;-82
2022/09/19 11:06:30;;;;;;;;;;;;;;;26.65;30.82;100847.53;4990079;28;19933;-80
2022/09/19 11:08:57;;;;;;;;;;;;;;;25.71;28.97;100857.25;4986667;28;19933;-80
2022/09/19 11:11:32;;;;;;;;;;;;;;;25.06;32.08;100847.38;4989732;28;19933;-80
2022/09/19 11:14:19;;;;;;;;;;;;;;;28.02;29.37;100831.22;4987171;28;19930;-80
2022/09/19 11:16:57;;;;;;;;;;;;;;;27.97;31.95;100825.94;4986565;28;19925;-79
2022/09/19 11:19:26;;;;;;;;;;;;;;;28.87;29.51;100819.72;4990973;28;19926;-81
2022/09/19 11:22:02;;;;;;;;;;;;;;;28.91;27.02;100820.66;4986695;28;19930;-80
2022/09/19 11:24:45;;;;;;;;;;;;;;;26.82;28.47;100819.59;4987555;28;19937;-81
2022/09/19 11:27:19;;;;;;;;;;;;;;;26.25;29.72;100817.44;4989181;28;19925;-80
2022/09/19 11:29:54;;;;;;;;;;;;;;;27.43;29.38;100808.97;4986846;28;19934;-81
2022/09/19 11:32:32;;;;;;;;;;;;;;;27.78;26.42;100801.69;5034179;28;19926;-79
2022/09/19 11:35:01;;;;;;;;;;;;;;;28.64;26.19;100795.34;5031964;28;19936;-79
2022/09/19 11:37:41;;;;;;;;;;;;;;;28.03;27.04;100798.16;5023480;28;20309;-81
2022/09/19 11:40:18;;;;;;;;;;;;;;;27.81;28.00;100793.66;5035120;28;20285;-76
2022/09/19 11:42:49;;;;;;;;;;;;;;;25.22;33.86;100805.22;5032194;28;20422;-77
2022/09/19 11:45:17;;;;;;;;;;;;;;;27.85;24.14;100793.81;5031275;28;19925;-78
2022/09/19 11:47:52;;;;;;;;;;;;;;;28.16;24.53;100792.84;5030878;28;19925;-78
2022/09/19 11:50:30;;;;;;;;;;;;;;;28.23;23.02;100787.69;5029656;28;19925;-81
2022/09/19 11:53:14;;;;;;;;;;;;;;;29.40;24.78;100789.09;5007219;28;21320;-78
2022/09/19 11:55:47;;;;;;;;;;;;;;;27.64;23.03;100778.03;5031549;28;19925;-79
2022/09/19 11:58:16;;;;;;;;;;;;;;;27.36;24.26;100785.69;5027637;28;19926;-80
2022/09/19 12:01:03;;;;;;;;;;;;;;;27.68;24.73;100782.84;5030473;28;20366;-80
2022/09/19 12:03:47;;;;;;;;;;;;;;;29.47;22.27;100783.09;5030280;28;20370;-80
2022/09/19 12:06:32;;;;;;;;;;;;;;;;;;;;;
2022/09/19 12:09:17;;;;;;;;;;;;;;;28.34;22.04;100769.84;5029106;28;20500;-82
2022/09/19 12:11:49;;;;;;;;;;;;;;;27.65;24.40;100770.66;5032727;28;20433;-76
2022/09/19 12:14:20;;;;;;;;;;;;;;;28.09;21.94;100769.56;5029053;28;19929;-77
2022/09/19 12:16:50;;;;;;;;;;;;;;;28.46;22.60;100759.06;5029356;28;19925;-78
2022/09/19 12:19:24;;;;;;;;;;;;;;;29.29;22.68;100765.19;5031221;28;20346;-82
2022/09/19 12:21:52;;;;;;;;;;;;;;;29.00;23.86;100761.28;5024540;28;20380;-79
2022/09/19 12:27:13;;;;;;;;;;;;;;;29.52;22.91;100769.22;5028373;28;19932;-79
2022/09/19 12:29:47;;;;;;;;;;;;;;;29.33;22.18;100760.66;5028230;28;19926;-81
2022/09/19 12:32:16;;;;;;;;;;;;;;;25.52;28.31;100767.66;5032869;28;19925;-78
2022/09/19 12:34:47;;;;;;;;;;;;;;;27.42;25.28;100759.09;5030997;28;19932;-81
2022/09/19 12:37:35;;;;;;;;;;;;;;;28.96;21.83;100757.63;5032493;28;19982;-80
2022/09/19 12:40:10;;;;;;;;;;;;;;;29.12;21.46;100753.22;5031337;28;20114;-77
2022/09/19 12:42:45;;;;;;;;;;;;;;;29.01;21.84;100741.03;5032120;28;19925;-77
2022/09/19 12:45:18;;;;;;;;;;;;;;;29.57;21.00;100741.66;5032512;28;20007;-76
2022/09/19 12:47:54;;;;;;;;;;;;;;;28.89;21.24;100724.53;5029793;28;19925;-77
2022/09/19 12:50:32;;;;;;;;;;;;;;;28.15;22.85;100726.53;5033284;28;20051;-82
2022/09/19 12:53:14;;;;;;;;;;;;;;;27.88;22.99;100729.59;5028617;28;19928;-83
2022/09/19 12:56:02;;;;;;;;;;;;;;;29.35;23.77;100720.91;5028344;28;19932;-76
2022/09/19 12:58:35;;;;;;;;;;;;;;;29.12;21.83;100723.16;5026163;28;19969;-77
2022/09/19 13:01:13;;;;;;;;;;;;;;;28.44;22.28;100714.91;5029031;28;19925;-76
2022/09/19 13:03:43;;;;;;;;;;;;;;;28.22;22.77;100715.91;5023591;28;20396;-79
2022/09/19 13:06:14;;;;;;;;;;;;;;;27.55;22.67;100708.22;5032810;28;19925;-77
2022/09/19 13:08:48;;;;;;;;;;;;;;;26.94;22.48;100719.00;5028550;28;19964;-78
2022/09/19 13:11:21;;;;;;;;;;;;;;;28.57;19.87;100715.03;5032059;28;19982;-81
2022/09/19 13:13:53;;;;;;;;;;;;;;;27.01;23.92;100718.53;5030757;28;19925;-79
2022/09/19 13:16:31;;;;;;;;;;;;;;;28.02;22.35;100708.38;5032624;28;19925;-82
2022/09/19 13:24:36;;;;;;;;;;;;;;;27.77;21.22;100699.88;5031939;28;19932;-79
2022/09/19 13:27:15;;;;;;;;;;;;;;;;;;;;;
2022/09/19 13:29:51;;;;;;;;;;;;;;;27.01;22.32;100686.63;5029725;28;19929;-80
2022/09/19 13:32:34;;;;;;;;;;;;;;;27.43;20.73;100683.53;5024151;28;20448;-75
2022/09/19 13:35:19;;;;;;;;;;;;;;;28.09;20.33;100676.75;5030502;28;19991;-80
2022/09/19 13:38:08;;;;;;;;;;;;;;;26.59;21.69;100678.00;5031188;28;19995;-79
2022/09/19 13:40:40;;;;;;;;;;;;;;;27.17;22.54;100678.84;5026229;28;19999;-83